Accueil
METAR-TAF:

METAR-TAF

Aéroports :

Aéroport de Venise-Marco-Polo

Venise, Italie

latitude: 45-30N, longitude: 012-20E, altitude: 2 m

Observation

Le bulletin a été fait il y a 23 minutes, à 00:20 UTC
Vent 3 kt de ouest/nord-ouest
Température 16°C
Humidité 59%
Pression 1026 hPa
Visibilité 10 km ou plus
pas de nuages en-dessous de 1500 mètres et pas de cumulonimbus.

METAR: LIPZ 280020Z 30003KT CAVOK 16/08 Q1026 NOSIG

Heure: 02:43 (00:43 UTC)

Prévision

Le bulletin a été fait il y a 1 heure et 43 minutes, à 23:00 UTC
Prévision valable du 28 à 00 UTC au 29 à 06 UTC
Vent 5 kt de direction variable
Visibilité 10 km ou plus
Quelques nuages à une hauteur de 3000 ft
Evoluant progressivement
du 28 à 09 UTC au 28 à 11 UTC
Vent 10 kt de sud/sud-est
Evoluant progressivement
du 28 à 21 UTC au 28 à 23 UTC
Vent 7 kt de est/nord-est

TAF: LIPZ 272300Z 2800/2906 VRB05KT 9999 FEW030 BECMG 2809/2811 15010KT BECMG 2821/2823 06007KT

Observations et prévisions météorologiques de plus de 4000 aéroports (messages METAR et TAF).

Les stations disponibles sont représentées par des disques jaunes et rouges sur la carte.

Passer la souris dessus pour voir le nom de la station.

Cliquer dessus pour voir les observations et prévisions météorologiques.

Pour changer de carte: cliquez sur les boutons verts avec une croix noire pour zoomer, sur le bouton vert avec un tiret pour effectuer un zoom arrière, ou sur les flèches vertes pour les cartes adjacentes.


METAR-TAF: